Antimony, UT

5:36 PM MDT on July 23, 2016 (GMT -0600)
Bryce Canyon | | Change Station

Elev 7585 ft 37.71 °N, 112.15 °W | Updated 23 minutes ago

Partly Cloudy
Partly Cloudy
88 °F
Feels Like 88 °F
N
13
Wind Variable Wind from NW
Gusts 20 mph

Today
High -- | Low -- °F
--% Chance of Precip.
Yesterday
High -- | Low -- °F
Precip. -- in
Pressure 30.27 in
Visibility 10.0 miles
Clouds Few 12000 ft
Dew Point 33 °F
Humidity 14%
Rainfall 0.00 in
Snow Depth Not available.
6:24 AM 8:44 PM
Waning Gibbous, 81% visible
SPECI KBCE 232313Z AUTO 32011G17KT 10SM FEW120 31/01 A3027 RMK AO2 T03110006
Pressure 30.27 in
Visibility 10.0 miles
Clouds Few 12000 ft
Dew Point 33 °F
Humidity 14%
Rainfall 0.00 in
Snow Depth Not available.
6:24 AM 8:44 PM
Waning Gibbous, 81% visible
SPECI KBCE 232313Z AUTO 32011G17KT 10SM FEW120 31/01 A3027 RMK AO2 T03110006

10-Day Weather Forecast

Almanac

Astronomy

Jul. 23, 2016 Rise Set
Actual Time
Civil Twilight
Nautical Twilight
Astronomical Twilight
Moon
Length of Visible Light
Length of Day
Tomorrow will be .
, % of the Moon is Illuminated

Today's Extremes

State Highs State Lows

Community

WunderPhotos

Upload Photos

1,926,974 photos uploaded!

WunderBlog® & News

Nearby

Air Quality

  Air Quality AQ Index Pollutant
Not available.

Snow Depth

Station Depth Elevation

Earthquake Activity

City Distance Mag. Time & Date
Minimum magnitude displayed is 2.5.

Coastal Water Temperatures

Place Temperature

Stations

Nearby Weather Stations

Station Location Temp. Windchill Dew Point Humidity Wind Precip. Elev Updated Type
                   

Watches & Warnings

There are currently no watches in effect.